sensor_id;sensor_type;location;lat;lon;timestamp;temperature;humidity
72126;SHT31;59999;51.676;22.650;2022-08-30T00:00:52;14.24;86.58
72126;SHT31;59999;51.676;22.650;2022-08-30T00:03:29;14.24;86.84
72126;SHT31;59999;51.676;22.650;2022-08-30T00:05:56;14.21;86.75
72126;SHT31;59999;51.676;22.650;2022-08-30T00:08:22;14.21;87.03
72126;SHT31;59999;51.676;22.650;2022-08-30T00:10:48;14.17;87.24
72126;SHT31;59999;51.676;22.650;2022-08-30T00:13:16;14.18;87.19
72126;SHT31;59999;51.676;22.650;2022-08-30T00:15:43;14.20;87.51
72126;SHT31;59999;51.676;22.650;2022-08-30T00:18:09;14.20;87.49
72126;SHT31;59999;51.676;22.650;2022-08-30T00:20:36;14.20;87.61
72126;SHT31;59999;51.676;22.650;2022-08-30T00:23:03;14.26;87.50
72126;SHT31;59999;51.676;22.650;2022-08-30T00:25:30;14.20;87.63
72126;SHT31;59999;51.676;22.650;2022-08-30T00:27:56;14.21;87.57
72126;SHT31;59999;51.676;22.650;2022-08-30T00:30:22;14.18;87.88
72126;SHT31;59999;51.676;22.650;2022-08-30T00:32:48;14.17;88.15
72126;SHT31;59999;51.676;22.650;2022-08-30T00:35:16;14.20;88.29
72126;SHT31;59999;51.676;22.650;2022-08-30T00:37:45;14.20;88.09
72126;SHT31;59999;51.676;22.650;2022-08-30T00:40:12;14.17;88.08
72126;SHT31;59999;51.676;22.650;2022-08-30T00:42:41;14.18;88.44
72126;SHT31;59999;51.676;22.650;2022-08-30T00:45:12;14.16;88.22
72126;SHT31;59999;51.676;22.650;2022-08-30T00:47:39;14.13;88.28
72126;SHT31;59999;51.676;22.650;2022-08-30T00:50:06;14.07;88.34
72126;SHT31;59999;51.676;22.650;2022-08-30T00:52:34;14.02;88.36
72126;SHT31;59999;51.676;22.650;2022-08-30T00:55:01;13.99;88.55
72126;SHT31;59999;51.676;22.650;2022-08-30T00:57:29;13.90;88.62
72126;SHT31;59999;51.676;22.650;2022-08-30T00:59:55;13.85;88.81
72126;SHT31;59999;51.676;22.650;2022-08-30T01:02:21;13.80;88.91
72126;SHT31;59999;51.676;22.650;2022-08-30T01:04:48;13.72;89.06
72126;SHT31;59999;51.676;22.650;2022-08-30T01:07:17;13.65;89.20
72126;SHT31;59999;51.676;22.650;2022-08-30T01:09:43;13.54;89.47
72126;SHT31;59999;51.676;22.650;2022-08-30T01:12:10;13.48;89.73
72126;SHT31;59999;51.676;22.650;2022-08-30T01:14:36;13.41;89.81
72126;SHT31;59999;51.676;22.650;2022-08-30T01:17:03;13.38;90.22
72126;SHT31;59999;51.676;22.650;2022-08-30T01:19:41;13.35;90.69
72126;SHT31;59999;51.676;22.650;2022-08-30T01:24:46;13.35;91.35
72126;SHT31;59999;51.676;22.650;2022-08-30T01:27:14;13.35;91.36
72126;SHT31;59999;51.676;22.650;2022-08-30T01:29:41;13.34;91.53
72126;SHT31;59999;51.676;22.650;2022-08-30T01:32:21;13.37;91.59
72126;SHT31;59999;51.676;22.650;2022-08-30T01:34:48;13.38;91.68
72126;SHT31;59999;51.676;22.650;2022-08-30T01:37:16;13.39;91.72
72126;SHT31;59999;51.676;22.650;2022-08-30T01:39:45;13.41;91.69
72126;SHT31;59999;51.676;22.650;2022-08-30T01:42:12;13.42;91.55
72126;SHT31;59999;51.676;22.650;2022-08-30T01:44:38;13.41;91.60
72126;SHT31;59999;51.676;22.650;2022-08-30T01:47:04;13.39;91.82
72126;SHT31;59999;51.676;22.650;2022-08-30T01:49:31;13.41;91.71
72126;SHT31;59999;51.676;22.650;2022-08-30T01:51:57;13.38;91.75
72126;SHT31;59999;51.676;22.650;2022-08-30T01:54:23;13.42;92.04
72126;SHT31;59999;51.676;22.650;2022-08-30T01:56:48;13.41;91.81
72126;SHT31;59999;51.676;22.650;2022-08-30T01:59:15;13.38;91.86
72126;SHT31;59999;51.676;22.650;2022-08-30T02:01:41;13.34;91.82
72126;SHT31;59999;51.676;22.650;2022-08-30T02:04:09;13.29;91.78
72126;SHT31;59999;51.676;22.650;2022-08-30T02:06:38;13.25;91.84
72126;SHT31;59999;51.676;22.650;2022-08-30T02:09:04;13.27;92.16
72126;SHT31;59999;51.676;22.650;2022-08-30T02:11:30;13.25;92.27
72126;SHT31;59999;51.676;22.650;2022-08-30T02:13:56;13.22;92.23
72126;SHT31;59999;51.676;22.650;2022-08-30T02:16:23;13.21;92.29
72126;SHT31;59999;51.676;22.650;2022-08-30T02:18:51;13.15;92.26
72126;SHT31;59999;51.676;22.650;2022-08-30T02:21:17;13.11;92.39
72126;SHT31;59999;51.676;22.650;2022-08-30T02:23:43;13.06;92.73
72126;SHT31;59999;51.676;22.650;2022-08-30T02:26:11;13.03;92.75
72126;SHT31;59999;51.676;22.650;2022-08-30T02:28:38;13.01;92.88
72126;SHT31;59999;51.676;22.650;2022-08-30T02:31:04;12.99;92.94
72126;SHT31;59999;51.676;22.650;2022-08-30T02:33:30;12.99;93.25
72126;SHT31;59999;51.676;22.650;2022-08-30T02:35:56;12.93;93.38
72126;SHT31;59999;51.676;22.650;2022-08-30T02:38:23;12.93;93.42
72126;SHT31;59999;51.676;22.650;2022-08-30T02:40:50;12.96;93.54
72126;SHT31;59999;51.676;22.650;2022-08-30T02:43:17;12.96;93.75
72126;SHT31;59999;51.676;22.650;2022-08-30T02:45:43;12.97;93.75
72126;SHT31;59999;51.676;22.650;2022-08-30T02:48:09;12.94;93.83
72126;SHT31;59999;51.676;22.650;2022-08-30T02:50:47;12.97;93.98
72126;SHT31;59999;51.676;22.650;2022-08-30T02:53:14;13.00;93.94
72126;SHT31;59999;51.676;22.650;2022-08-30T02:55:40;13.03;93.96
72126;SHT31;59999;51.676;22.650;2022-08-30T02:58:06;13.04;93.88
72126;SHT31;59999;51.676;22.650;2022-08-30T03:00:33;13.01;93.97
72126;SHT31;59999;51.676;22.650;2022-08-30T03:02:59;13.00;93.78
72126;SHT31;59999;51.676;22.650;2022-08-30T03:05:29;13.03;93.98
72126;SHT31;59999;51.676;22.650;2022-08-30T03:07:56;13.01;94.02
72126;SHT31;59999;51.676;22.650;2022-08-30T03:10:22;13.03;94.02
72126;SHT31;59999;51.676;22.650;2022-08-30T03:12:48;13.03;94.00
72126;SHT31;59999;51.676;22.650;2022-08-30T03:15:15;13.00;93.86
72126;SHT31;59999;51.676;22.650;2022-08-30T03:17:41;12.97;93.94
72126;SHT31;59999;51.676;22.650;2022-08-30T03:20:08;12.97;94.02
72126;SHT31;59999;51.676;22.650;2022-08-30T03:22:34;12.94;93.98
72126;SHT31;59999;51.676;22.650;2022-08-30T03:25:02;12.93;94.20
72126;SHT31;59999;51.676;22.650;2022-08-30T03:27:30;12.93;94.37
72126;SHT31;59999;51.676;22.650;2022-08-30T03:29:57;12.90;94.34
72126;SHT31;59999;51.676;22.650;2022-08-30T03:32:23;12.89;94.46
72126;SHT31;59999;51.676;22.650;2022-08-30T03:34:49;12.87;94.48
72126;SHT31;59999;51.676;22.650;2022-08-30T03:37:15;12.86;94.53
72126;SHT31;59999;51.676;22.650;2022-08-30T03:39:42;12.87;94.66
72126;SHT31;59999;51.676;22.650;2022-08-30T03:42:10;12.84;94.58
72126;SHT31;59999;51.676;22.650;2022-08-30T03:44:36;12.86;94.66
72126;SHT31;59999;51.676;22.650;2022-08-30T03:47:03;12.84;94.65
72126;SHT31;59999;51.676;22.650;2022-08-30T03:49:29;12.84;94.73
72126;SHT31;59999;51.676;22.650;2022-08-30T03:51:56;12.86;94.78
72126;SHT31;59999;51.676;22.650;2022-08-30T03:54:22;12.83;94.88
72126;SHT31;59999;51.676;22.650;2022-08-30T03:56:48;12.89;94.89
72126;SHT31;59999;51.676;22.650;2022-08-30T03:59:14;12.90;94.94
72126;SHT31;59999;51.676;22.650;2022-08-30T04:01:40;12.93;94.84
72126;SHT31;59999;51.676;22.650;2022-08-30T04:04:07;12.93;94.84
72126;SHT31;59999;51.676;22.650;2022-08-30T04:06:33;12.96;94.89
72126;SHT31;59999;51.676;22.650;2022-08-30T04:08:59;12.99;94.86
72126;SHT31;59999;51.676;22.650;2022-08-30T04:11:26;12.99;94.76
72126;SHT31;59999;51.676;22.650;2022-08-30T04:13:52;13.03;94.72
72126;SHT31;59999;51.676;22.650;2022-08-30T04:16:21;13.07;94.74
72126;SHT31;59999;51.676;22.650;2022-08-30T04:18:48;13.10;94.65
72126;SHT31;59999;51.676;22.650;2022-08-30T04:21:14;13.11;94.61
72126;SHT31;59999;51.676;22.650;2022-08-30T04:23:41;13.15;94.61
72126;SHT31;59999;51.676;22.650;2022-08-30T04:26:07;13.21;94.42
72126;SHT31;59999;51.676;22.650;2022-08-30T04:28:33;13.24;94.32
72126;SHT31;59999;51.676;22.650;2022-08-30T04:31:14;13.28;94.09
72126;SHT31;59999;51.676;22.650;2022-08-30T04:33:41;13.29;94.00
72126;SHT31;59999;51.676;22.650;2022-08-30T04:36:08;13.32;94.02
72126;SHT31;59999;51.676;22.650;2022-08-30T04:38:36;13.32;93.99
72126;SHT31;59999;51.676;22.650;2022-08-30T04:41:10;13.37;94.10
72126;SHT31;59999;51.676;22.650;2022-08-30T04:43:37;13.42;93.97
72126;SHT31;59999;51.676;22.650;2022-08-30T04:46:05;13.47;93.71
72126;SHT31;59999;51.676;22.650;2022-08-30T04:48:33;13.52;93.72
72126;SHT31;59999;51.676;22.650;2022-08-30T04:51:02;13.59;93.33
72126;SHT31;59999;51.676;22.650;2022-08-30T04:53:28;13.68;93.43
72126;SHT31;59999;51.676;22.650;2022-08-30T04:55:54;13.76;93.15
72126;SHT31;59999;51.676;22.650;2022-08-30T04:58:20;13.85;92.62
72126;SHT31;59999;51.676;22.650;2022-08-30T05:00:46;13.95;92.71
72126;SHT31;59999;51.676;22.650;2022-08-30T05:03:12;14.07;92.72
72126;SHT31;59999;51.676;22.650;2022-08-30T05:05:38;14.16;92.36
72126;SHT31;59999;51.676;22.650;2022-08-30T05:08:13;14.27;91.77
72126;SHT31;59999;51.676;22.650;2022-08-30T05:10:42;14.42;91.38
72126;SHT31;59999;51.676;22.650;2022-08-30T05:13:09;14.52;91.22
72126;SHT31;59999;51.676;22.650;2022-08-30T05:15:35;14.67;90.37
72126;SHT31;59999;51.676;22.650;2022-08-30T05:18:03;14.78;90.54
72126;SHT31;59999;51.676;22.650;2022-08-30T05:20:29;14.89;89.55
72126;SHT31;59999;51.676;22.650;2022-08-30T05:22:55;14.99;89.64
72126;SHT31;59999;51.676;22.650;2022-08-30T05:25:24;15.09;89.51
72126;SHT31;59999;51.676;22.650;2022-08-30T05:27:51;15.09;89.31
72126;SHT31;59999;51.676;22.650;2022-08-30T05:30:18;15.20;89.46
72126;SHT31;59999;51.676;22.650;2022-08-30T05:32:45;15.30;89.12
72126;SHT31;59999;51.676;22.650;2022-08-30T05:35:12;15.41;89.15
72126;SHT31;59999;51.676;22.650;2022-08-30T05:37:39;15.51;88.83
72126;SHT31;59999;51.676;22.650;2022-08-30T05:40:06;15.55;88.79
72126;SHT31;59999;51.676;22.650;2022-08-30T05:42:34;15.55;88.82
72126;SHT31;59999;51.676;22.650;2022-08-30T05:45:01;15.51;88.76
72126;SHT31;59999;51.676;22.650;2022-08-30T05:47:28;15.51;89.19
72126;SHT31;59999;51.676;22.650;2022-08-30T05:49:54;15.53;89.30
72126;SHT31;59999;51.676;22.650;2022-08-30T05:52:20;15.53;89.19
72126;SHT31;59999;51.676;22.650;2022-08-30T05:54:56;15.57;89.15
72126;SHT31;59999;51.676;22.650;2022-08-30T05:57:25;15.65;88.93
72126;SHT31;59999;51.676;22.650;2022-08-30T05:59:51;15.68;88.92
72126;SHT31;59999;51.676;22.650;2022-08-30T06:02:17;15.75;88.92
72126;SHT31;59999;51.676;22.650;2022-08-30T06:04:43;15.81;88.45
72126;SHT31;59999;51.676;22.650;2022-08-30T06:07:10;15.90;88.57
72126;SHT31;59999;51.676;22.650;2022-08-30T06:09:36;15.90;88.13
72126;SHT31;59999;51.676;22.650;2022-08-30T06:12:02;15.95;88.13
72126;SHT31;59999;51.676;22.650;2022-08-30T06:14:31;15.99;87.78
72126;SHT31;59999;51.676;22.650;2022-08-30T06:16:57;16.13;87.90
72126;SHT31;59999;51.676;22.650;2022-08-30T06:19:22;16.28;87.64
72126;SHT31;59999;51.676;22.650;2022-08-30T06:21:50;16.49;87.58
72126;SHT31;59999;51.676;22.650;2022-08-30T06:24:16;16.67;86.16
72126;SHT31;59999;51.676;22.650;2022-08-30T06:26:45;16.77;85.84
72126;SHT31;59999;51.676;22.650;2022-08-30T06:29:16;16.85;84.93
72126;SHT31;59999;51.676;22.650;2022-08-30T06:31:43;16.92;84.33
72126;SHT31;59999;51.676;22.650;2022-08-30T06:34:09;17.03;84.44
72126;SHT31;59999;51.676;22.650;2022-08-30T06:36:35;17.11;84.24
72126;SHT31;59999;51.676;22.650;2022-08-30T06:39:01;17.17;84.06
72126;SHT31;59999;51.676;22.650;2022-08-30T06:41:30;17.36;84.66
72126;SHT31;59999;51.676;22.650;2022-08-30T06:43:59;17.42;84.14
72126;SHT31;59999;51.676;22.650;2022-08-30T06:46:28;17.43;84.12
72126;SHT31;59999;51.676;22.650;2022-08-30T06:48:54;17.49;84.17
72126;SHT31;59999;51.676;22.650;2022-08-30T06:51:23;17.63;83.42
72126;SHT31;59999;51.676;22.650;2022-08-30T06:53:50;17.76;82.26
72126;SHT31;59999;51.676;22.650;2022-08-30T06:56:17;17.90;83.07
72126;SHT31;59999;51.676;22.650;2022-08-30T06:58:43;18.01;82.59
72126;SHT31;59999;51.676;22.650;2022-08-30T07:01:12;18.07;81.57
72126;SHT31;59999;51.676;22.650;2022-08-30T07:03:39;18.05;82.11
72126;SHT31;59999;51.676;22.650;2022-08-30T07:06:06;18.11;83.16
72126;SHT31;59999;51.676;22.650;2022-08-30T07:08:32;18.10;81.30
72126;SHT31;59999;51.676;22.650;2022-08-30T07:10:58;18.18;81.27
72126;SHT31;59999;51.676;22.650;2022-08-30T07:13:24;18.21;81.41
72126;SHT31;59999;51.676;22.650;2022-08-30T07:15:53;18.23;81.08
72126;SHT31;59999;51.676;22.650;2022-08-30T07:18:19;18.25;80.70
72126;SHT31;59999;51.676;22.650;2022-08-30T07:21:13;18.34;81.96
72126;SHT31;59999;51.676;22.650;2022-08-30T07:23:41;18.49;81.47
72126;SHT31;59999;51.676;22.650;2022-08-30T07:26:09;18.69;78.61
72126;SHT31;59999;51.676;22.650;2022-08-30T07:28:37;18.75;78.92
72126;SHT31;59999;51.676;22.650;2022-08-30T07:31:04;18.77;79.12
72126;SHT31;59999;51.676;22.650;2022-08-30T07:33:31;18.85;79.31
72126;SHT31;59999;51.676;22.650;2022-08-30T07:35:57;18.95;78.32
72126;SHT31;59999;51.676;22.650;2022-08-30T07:38:27;18.95;78.70
72126;SHT31;59999;51.676;22.650;2022-08-30T07:40:53;19.06;78.94
72126;SHT31;59999;51.676;22.650;2022-08-30T07:43:19;19.11;77.95
72126;SHT31;59999;51.676;22.650;2022-08-30T07:45:45;19.20;76.89
72126;SHT31;59999;51.676;22.650;2022-08-30T07:48:11;19.35;76.44
72126;SHT31;59999;51.676;22.650;2022-08-30T07:50:42;19.58;76.08
72126;SHT31;59999;51.676;22.650;2022-08-30T07:53:09;19.78;73.64
72126;SHT31;59999;51.676;22.650;2022-08-30T07:55:35;19.93;74.68
72126;SHT31;59999;51.676;22.650;2022-08-30T07:58:01;20.05;74.06
72126;SHT31;59999;51.676;22.650;2022-08-30T08:00:27;20.17;73.40
72126;SHT31;59999;51.676;22.650;2022-08-30T08:02:53;20.37;71.91
72126;SHT31;59999;51.676;22.650;2022-08-30T08:05:19;20.56;72.81
72126;SHT31;59999;51.676;22.650;2022-08-30T08:07:45;20.60;71.62
72126;SHT31;59999;51.676;22.650;2022-08-30T08:10:11;20.80;71.66
72126;SHT31;59999;51.676;22.650;2022-08-30T08:12:39;20.91;70.96
72126;SHT31;59999;51.676;22.650;2022-08-30T08:15:05;21.04;70.93
72126;SHT31;59999;51.676;22.650;2022-08-30T08:17:31;21.12;70.35
72126;SHT31;59999;51.676;22.650;2022-08-30T08:19:57;21.22;70.53
72126;SHT31;59999;51.676;22.650;2022-08-30T08:22:23;21.23;68.75
72126;SHT31;59999;51.676;22.650;2022-08-30T08:24:49;21.16;70.17
72126;SHT31;59999;51.676;22.650;2022-08-30T08:27:15;21.02;69.26
72126;SHT31;59999;51.676;22.650;2022-08-30T08:29:41;20.90;70.37
72126;SHT31;59999;51.676;22.650;2022-08-30T08:32:07;20.78;69.41
72126;SHT31;59999;51.676;22.650;2022-08-30T08:34:34;20.68;70.20
72126;SHT31;59999;51.676;22.650;2022-08-30T08:37:00;20.80;69.96
72126;SHT31;59999;51.676;22.650;2022-08-30T08:39:26;20.96;68.93
72126;SHT31;59999;51.676;22.650;2022-08-30T08:42:08;21.12;66.73
72126;SHT31;59999;51.676;22.650;2022-08-30T08:45:20;21.26;66.48
72126;SHT31;59999;51.676;22.650;2022-08-30T08:47:57;21.14;66.22
72126;SHT31;59999;51.676;22.650;2022-08-30T08:50:25;21.11;65.71
72126;SHT31;59999;51.676;22.650;2022-08-30T08:53:08;21.06;65.70
72126;SHT31;59999;51.676;22.650;2022-08-30T08:55:53;21.29;66.09
72126;SHT31;59999;51.676;22.650;2022-08-30T08:58:26;21.28;63.49
72126;SHT31;59999;51.676;22.650;2022-08-30T09:00:54;21.06;64.29
72126;SHT31;59999;51.676;22.650;2022-08-30T09:03:23;20.98;63.99
72126;SHT31;59999;51.676;22.650;2022-08-30T09:05:50;20.96;66.12
72126;SHT31;59999;51.676;22.650;2022-08-30T09:08:18;20.98;66.56
72126;SHT31;59999;51.676;22.650;2022-08-30T09:11:02;20.91;66.72
72126;SHT31;59999;51.676;22.650;2022-08-30T09:13:29;20.71;67.47
72126;SHT31;59999;51.676;22.650;2022-08-30T09:15:56;20.50;67.13
72126;SHT31;59999;51.676;22.650;2022-08-30T09:18:44;20.29;67.01
72126;SHT31;59999;51.676;22.650;2022-08-30T09:21:12;20.25;67.41
72126;SHT31;59999;51.676;22.650;2022-08-30T09:23:50;20.32;67.68
72126;SHT31;59999;51.676;22.650;2022-08-30T09:26:32;20.48;67.90
72126;SHT31;59999;51.676;22.650;2022-08-30T09:28:58;20.68;67.28
72126;SHT31;59999;51.676;22.650;2022-08-30T09:31:28;20.65;65.80
72126;SHT31;59999;51.676;22.650;2022-08-30T09:36:31;20.75;66.84
72126;SHT31;59999;51.676;22.650;2022-08-30T09:39:05;20.68;66.36
72126;SHT31;59999;51.676;22.650;2022-08-30T09:41:42;20.80;66.46
72126;SHT31;59999;51.676;22.650;2022-08-30T09:44:14;20.73;65.68
72126;SHT31;59999;51.676;22.650;2022-08-30T09:49:33;20.83;64.89
72126;SHT31;59999;51.676;22.650;2022-08-30T09:54:58;21.01;64.44
72126;SHT31;59999;51.676;22.650;2022-08-30T10:00:27;21.05;62.61
72126;SHT31;59999;51.676;22.650;2022-08-30T10:03:20;20.96;63.57
72126;SHT31;59999;51.676;22.650;2022-08-30T10:06:09;21.15;64.21
72126;SHT31;59999;51.676;22.650;2022-08-30T10:25:18;20.65;62.68
72126;SHT31;59999;51.676;22.650;2022-08-30T10:27:57;20.77;63.27
72126;SHT31;59999;51.676;22.650;2022-08-30T10:30:27;20.84;62.46
72126;SHT31;59999;51.676;22.650;2022-08-30T10:35:29;21.06;62.56
72126;SHT31;59999;51.676;22.650;2022-08-30T10:38:09;21.11;63.26
72126;SHT31;59999;51.676;22.650;2022-08-30T10:40:42;20.95;62.61
72126;SHT31;59999;51.676;22.650;2022-08-30T10:48:55;20.83;61.88
72126;SHT31;59999;51.676;22.650;2022-08-30T10:51:37;20.87;61.10
72126;SHT31;59999;51.676;22.650;2022-08-30T10:54:39;20.84;61.87
72126;SHT31;59999;51.676;22.650;2022-08-30T10:57:07;20.88;61.59
72126;SHT31;59999;51.676;22.650;2022-08-30T10:59:36;20.84;62.90
72126;SHT31;59999;51.676;22.650;2022-08-30T11:13:22;22.07;58.08
72126;SHT31;59999;51.676;22.650;2022-08-30T11:18:22;22.72;55.30
72126;SHT31;59999;51.676;22.650;2022-08-30T11:20:53;22.63;55.82
72126;SHT31;59999;51.676;22.650;2022-08-30T11:23:33;22.45;58.64
72126;SHT31;59999;51.676;22.650;2022-08-30T11:26:06;22.11;59.56
72126;SHT31;59999;51.676;22.650;2022-08-30T11:28:58;21.77;60.62
72126;SHT31;59999;51.676;22.650;2022-08-30T11:33:53;21.79;60.56
72126;SHT31;59999;51.676;22.650;2022-08-30T11:39:02;21.69;59.27
72126;SHT31;59999;51.676;22.650;2022-08-30T11:41:46;21.46;59.67
72126;SHT31;59999;51.676;22.650;2022-08-30T11:47:00;21.26;60.63
72126;SHT31;59999;51.676;22.650;2022-08-30T11:50:27;21.29;61.23
72126;SHT31;59999;51.676;22.650;2022-08-30T11:53:01;21.35;61.05
72126;SHT31;59999;51.676;22.650;2022-08-30T11:56:09;21.49;60.79
72126;SHT31;59999;51.676;22.650;2022-08-30T12:04:08;21.93;58.56
72126;SHT31;59999;51.676;22.650;2022-08-30T12:09:06;22.18;59.44
72126;SHT31;59999;51.676;22.650;2022-08-30T12:14:00;22.14;57.14
72126;SHT31;59999;51.676;22.650;2022-08-30T12:16:38;22.00;57.92
72126;SHT31;59999;51.676;22.650;2022-08-30T12:19:25;21.84;58.68
72126;SHT31;59999;51.676;22.650;2022-08-30T12:21:56;21.73;59.25
72126;SHT31;59999;51.676;22.650;2022-08-30T12:24:35;21.53;60.55
72126;SHT31;59999;51.676;22.650;2022-08-30T12:29:58;21.18;62.25
72126;SHT31;59999;51.676;22.650;2022-08-30T12:32:27;21.09;62.42
72126;SHT31;59999;51.676;22.650;2022-08-30T12:34:56;21.02;62.52
72126;SHT31;59999;51.676;22.650;2022-08-30T12:37:34;20.90;62.34
72126;SHT31;59999;51.676;22.650;2022-08-30T12:40:07;20.87;63.16
72126;SHT31;59999;51.676;22.650;2022-08-30T12:42:36;20.90;63.47
72126;SHT31;59999;51.676;22.650;2022-08-30T12:45:11;21.02;63.76
72126;SHT31;59999;51.676;22.650;2022-08-30T12:47:55;21.15;63.62
72126;SHT31;59999;51.676;22.650;2022-08-30T12:50:25;21.19;62.55
72126;SHT31;59999;51.676;22.650;2022-08-30T12:53:11;21.19;62.46
72126;SHT31;59999;51.676;22.650;2022-08-30T12:58:47;21.22;62.91
72126;SHT31;59999;51.676;22.650;2022-08-30T13:09:29;21.25;63.51
72126;SHT31;59999;51.676;22.650;2022-08-30T13:11:56;21.28;63.21
72126;SHT31;59999;51.676;22.650;2022-08-30T13:14:42;21.33;63.28
72126;SHT31;59999;51.676;22.650;2022-08-30T13:20:25;21.54;62.94
72126;SHT31;59999;51.676;22.650;2022-08-30T13:23:07;21.64;62.55
72126;SHT31;59999;51.676;22.650;2022-08-30T13:25:36;21.67;62.21
72126;SHT31;59999;51.676;22.650;2022-08-30T13:28:04;21.56;62.39
72126;SHT31;59999;51.676;22.650;2022-08-30T13:30:32;21.49;62.53
72126;SHT31;59999;51.676;22.650;2022-08-30T13:32:58;21.43;62.80
72126;SHT31;59999;51.676;22.650;2022-08-30T13:35:28;21.32;63.54
72126;SHT31;59999;51.676;22.650;2022-08-30T13:37:55;21.25;63.78
72126;SHT31;59999;51.676;22.650;2022-08-30T13:40:22;21.26;63.80
72126;SHT31;59999;51.676;22.650;2022-08-30T13:42:49;21.22;63.15
72126;SHT31;59999;51.676;22.650;2022-08-30T13:45:16;21.18;63.44
72126;SHT31;59999;51.676;22.650;2022-08-30T13:47:43;21.14;64.38
72126;SHT31;59999;51.676;22.650;2022-08-30T13:50:11;21.11;64.75
72126;SHT31;59999;51.676;22.650;2022-08-30T13:52:37;21.16;64.68
72126;SHT31;59999;51.676;22.650;2022-08-30T13:55:04;21.19;63.82
72126;SHT31;59999;51.676;22.650;2022-08-30T13:57:31;21.26;63.59
72126;SHT31;59999;51.676;22.650;2022-08-30T13:59:57;21.19;62.37
72126;SHT31;59999;51.676;22.650;2022-08-30T14:02:23;21.09;62.60
72126;SHT31;59999;51.676;22.650;2022-08-30T14:04:49;21.04;62.83
72126;SHT31;59999;51.676;22.650;2022-08-30T14:07:15;21.06;63.03
72126;SHT31;59999;51.676;22.650;2022-08-30T14:09:41;21.02;62.38
72126;SHT31;59999;51.676;22.650;2022-08-30T14:12:08;20.99;63.52
72126;SHT31;59999;51.676;22.650;2022-08-30T14:14:33;21.05;63.80
72126;SHT31;59999;51.676;22.650;2022-08-30T14:16:59;21.09;63.90
72126;SHT31;59999;51.676;22.650;2022-08-30T14:19:26;21.15;63.97
72126;SHT31;59999;51.676;22.650;2022-08-30T14:21:51;21.19;64.31
72126;SHT31;59999;51.676;22.650;2022-08-30T14:24:17;21.26;64.89
72126;SHT31;59999;51.676;22.650;2022-08-30T14:26:47;21.31;63.02
72126;SHT31;59999;51.676;22.650;2022-08-30T14:29:19;21.38;62.51
72126;SHT31;59999;51.676;22.650;2022-08-30T14:31:47;21.35;63.30
72126;SHT31;59999;51.676;22.650;2022-08-30T14:34:14;21.41;63.25
72126;SHT31;59999;51.676;22.650;2022-08-30T14:36:42;21.36;62.84
72126;SHT31;59999;51.676;22.650;2022-08-30T14:39:11;21.33;62.74
72126;SHT31;59999;51.676;22.650;2022-08-30T14:41:41;21.32;62.71
72126;SHT31;59999;51.676;22.650;2022-08-30T14:44:07;21.76;61.99
72126;SHT31;59999;51.676;22.650;2022-08-30T14:46:35;22.35;59.68
72126;SHT31;59999;51.676;22.650;2022-08-30T14:49:01;22.53;59.72
72126;SHT31;59999;51.676;22.650;2022-08-30T14:51:27;22.55;58.38
72126;SHT31;59999;51.676;22.650;2022-08-30T14:53:53;22.39;58.34
72126;SHT31;59999;51.676;22.650;2022-08-30T14:56:21;22.14;59.71
72126;SHT31;59999;51.676;22.650;2022-08-30T14:58:48;21.87;60.94
72126;SHT31;59999;51.676;22.650;2022-08-30T15:01:15;21.71;61.53
72126;SHT31;59999;51.676;22.650;2022-08-30T15:03:41;21.62;61.48
72126;SHT31;59999;51.676;22.650;2022-08-30T15:06:07;21.36;61.05
72126;SHT31;59999;51.676;22.650;2022-08-30T15:08:34;21.16;62.92
72126;SHT31;59999;51.676;22.650;2022-08-30T15:11:06;20.95;62.72
72126;SHT31;59999;51.676;22.650;2022-08-30T15:13:32;20.88;63.34
72126;SHT31;59999;51.676;22.650;2022-08-30T15:15:58;20.83;63.78
72126;SHT31;59999;51.676;22.650;2022-08-30T15:18:24;20.78;64.11
72126;SHT31;59999;51.676;22.650;2022-08-30T15:20:50;20.81;64.19
72126;SHT31;59999;51.676;22.650;2022-08-30T15:23:16;20.84;64.28
72126;SHT31;59999;51.676;22.650;2022-08-30T15:25:43;20.80;64.08
72126;SHT31;59999;51.676;22.650;2022-08-30T15:28:08;20.81;64.93
72126;SHT31;59999;51.676;22.650;2022-08-30T15:30:35;20.80;64.89
72126;SHT31;59999;51.676;22.650;2022-08-30T15:33:01;20.80;65.70
72126;SHT31;59999;51.676;22.650;2022-08-30T15:35:27;20.80;64.90
72126;SHT31;59999;51.676;22.650;2022-08-30T15:37:53;20.78;65.56
72126;SHT31;59999;51.676;22.650;2022-08-30T15:40:19;20.75;65.46
72126;SHT31;59999;51.676;22.650;2022-08-30T15:42:45;20.68;65.88
72126;SHT31;59999;51.676;22.650;2022-08-30T15:45:11;20.60;65.97
72126;SHT31;59999;51.676;22.650;2022-08-30T15:47:37;20.57;66.16
72126;SHT31;59999;51.676;22.650;2022-08-30T15:50:05;20.53;66.58
72126;SHT31;59999;51.676;22.650;2022-08-30T15:52:32;20.48;66.92
72126;SHT31;59999;51.676;22.650;2022-08-30T15:54:58;20.41;66.92
72126;SHT31;59999;51.676;22.650;2022-08-30T15:57:24;20.37;66.86
72126;SHT31;59999;51.676;22.650;2022-08-30T15:59:51;20.30;67.05
72126;SHT31;59999;51.676;22.650;2022-08-30T16:02:20;20.26;67.70
72126;SHT31;59999;51.676;22.650;2022-08-30T16:04:46;20.20;67.75
72126;SHT31;59999;51.676;22.650;2022-08-30T16:07:12;20.17;68.01
72126;SHT31;59999;51.676;22.650;2022-08-30T16:09:38;20.12;67.36
72126;SHT31;59999;51.676;22.650;2022-08-30T16:12:06;20.06;67.43
72126;SHT31;59999;51.676;22.650;2022-08-30T16:14:33;20.04;67.35
72126;SHT31;59999;51.676;22.650;2022-08-30T16:17:00;19.96;66.93
72126;SHT31;59999;51.676;22.650;2022-08-30T16:19:26;19.89;67.07
72126;SHT31;59999;51.676;22.650;2022-08-30T16:21:53;19.86;67.44
72126;SHT31;59999;51.676;22.650;2022-08-30T16:24:19;19.83;67.57
72126;SHT31;59999;51.676;22.650;2022-08-30T16:26:45;19.79;67.48
72126;SHT31;59999;51.676;22.650;2022-08-30T16:29:12;19.78;67.76
72126;SHT31;59999;51.676;22.650;2022-08-30T16:31:38;19.71;67.60
72126;SHT31;59999;51.676;22.650;2022-08-30T16:34:05;19.68;68.15
72126;SHT31;59999;51.676;22.650;2022-08-30T16:36:32;19.64;68.04
72126;SHT31;59999;51.676;22.650;2022-08-30T16:39:00;19.57;68.45
72126;SHT31;59999;51.676;22.650;2022-08-30T16:41:26;19.55;68.66
72126;SHT31;59999;51.676;22.650;2022-08-30T16:43:53;19.48;68.84
72126;SHT31;59999;51.676;22.650;2022-08-30T16:46:22;19.40;68.75
72126;SHT31;59999;51.676;22.650;2022-08-30T16:48:48;19.37;69.03
72126;SHT31;59999;51.676;22.650;2022-08-30T16:51:17;19.31;69.26
72126;SHT31;59999;51.676;22.650;2022-08-30T16:53:44;19.28;69.27